sensor_id;sensor_type;location;lat;lon;timestamp;temperature;humidity
11650;DHT22;5881;48.522;7.682;2022-09-11T00:01:57;15.20;99.90
11650;DHT22;5881;48.522;7.682;2022-09-11T00:04:22;15.20;99.90
11650;DHT22;5881;48.522;7.682;2022-09-11T00:06:51;15.20;99.90
11650;DHT22;5881;48.522;7.682;2022-09-11T00:09:16;15.30;99.90
11650;DHT22;5881;48.522;7.682;2022-09-11T00:11:42;15.30;99.90
11650;DHT22;5881;48.522;7.682;2022-09-11T00:14:10;15.30;99.90
11650;DHT22;5881;48.522;7.682;2022-09-11T00:16:39;15.30;99.90
11650;DHT22;5881;48.522;7.682;2022-09-11T00:19:11;15.30;99.90
11650;DHT22;5881;48.522;7.682;2022-09-11T00:21:37;15.30;99.90
11650;DHT22;5881;48.522;7.682;2022-09-11T00:24:04;15.40;99.90
11650;DHT22;5881;48.522;7.682;2022-09-11T00:26:30;15.40;99.90
11650;DHT22;5881;48.522;7.682;2022-09-11T00:28:56;15.40;99.90
11650;DHT22;5881;48.522;7.682;2022-09-11T00:31:25;15.30;99.90
11650;DHT22;5881;48.522;7.682;2022-09-11T00:33:52;15.40;99.90
11650;DHT22;5881;48.522;7.682;2022-09-11T00:36:22;15.40;99.90
11650;DHT22;5881;48.522;7.682;2022-09-11T00:38:49;15.30;99.90
11650;DHT22;5881;48.522;7.682;2022-09-11T00:41:18;15.40;99.90
11650;DHT22;5881;48.522;7.682;2022-09-11T00:44:04;15.40;99.90
11650;DHT22;5881;48.522;7.682;2022-09-11T00:52:09;15.40;99.90
11650;DHT22;5881;48.522;7.682;2022-09-11T00:54:42;15.40;99.90
11650;DHT22;5881;48.522;7.682;2022-09-11T00:57:09;15.40;99.90
11650;DHT22;5881;48.522;7.682;2022-09-11T00:59:38;15.40;99.90
11650;DHT22;5881;48.522;7.682;2022-09-11T01:02:07;15.40;99.90
11650;DHT22;5881;48.522;7.682;2022-09-11T01:04:34;15.30;99.90
11650;DHT22;5881;48.522;7.682;2022-09-11T01:07:00;15.40;99.90
11650;DHT22;5881;48.522;7.682;2022-09-11T01:09:28;15.30;99.90
11650;DHT22;5881;48.522;7.682;2022-09-11T01:14:50;15.30;99.90
11650;DHT22;5881;48.522;7.682;2022-09-11T01:17:34;15.40;99.90
11650;DHT22;5881;48.522;7.682;2022-09-11T01:26:00;15.30;99.90
11650;DHT22;5881;48.522;7.682;2022-09-11T01:28:53;15.30;99.90
11650;DHT22;5881;48.522;7.682;2022-09-11T01:31:26;15.30;99.90
11650;DHT22;5881;48.522;7.682;2022-09-11T01:34:00;15.30;99.90
11650;DHT22;5881;48.522;7.682;2022-09-11T01:36:30;15.30;99.90
11650;DHT22;5881;48.522;7.682;2022-09-11T01:39:00;15.30;99.90
11650;DHT22;5881;48.522;7.682;2022-09-11T01:41:50;15.30;99.90
11650;DHT22;5881;48.522;7.682;2022-09-11T01:44:25;15.40;99.90
11650;DHT22;5881;48.522;7.682;2022-09-11T01:46:52;15.40;99.90
11650;DHT22;5881;48.522;7.682;2022-09-11T01:52:11;15.40;99.90
11650;DHT22;5881;48.522;7.682;2022-09-11T01:54:50;15.40;99.90
11650;DHT22;5881;48.522;7.682;2022-09-11T01:57:29;15.40;99.90
11650;DHT22;5881;48.522;7.682;2022-09-11T01:59:59;15.30;99.90
11650;DHT22;5881;48.522;7.682;2022-09-11T02:02:36;15.40;99.90
11650;DHT22;5881;48.522;7.682;2022-09-11T02:05:30;15.40;99.90
11650;DHT22;5881;48.522;7.682;2022-09-11T02:08:02;15.40;99.90
11650;DHT22;5881;48.522;7.682;2022-09-11T02:10:38;15.40;99.90
11650;DHT22;5881;48.522;7.682;2022-09-11T02:13:26;15.40;99.90
11650;DHT22;5881;48.522;7.682;2022-09-11T02:16:03;15.40;99.90
11650;DHT22;5881;48.522;7.682;2022-09-11T02:19:00;15.40;99.90
11650;DHT22;5881;48.522;7.682;2022-09-11T02:21:25;15.30;99.90
11650;DHT22;5881;48.522;7.682;2022-09-11T02:23:52;15.40;99.90
11650;DHT22;5881;48.522;7.682;2022-09-11T02:26:22;15.30;99.90
11650;DHT22;5881;48.522;7.682;2022-09-11T02:28:48;15.20;99.90
11650;DHT22;5881;48.522;7.682;2022-09-11T02:31:15;15.30;99.90
11650;DHT22;5881;48.522;7.682;2022-09-11T02:33:41;15.30;99.90
11650;DHT22;5881;48.522;7.682;2022-09-11T02:52:48;15.40;99.90
11650;DHT22;5881;48.522;7.682;2022-09-11T02:55:23;15.40;99.90
11650;DHT22;5881;48.522;7.682;2022-09-11T02:58:03;15.40;99.90
11650;DHT22;5881;48.522;7.682;2022-09-11T03:00:30;15.40;99.90
11650;DHT22;5881;48.522;7.682;2022-09-11T03:02:56;15.40;99.90
11650;DHT22;5881;48.522;7.682;2022-09-11T03:05:22;15.40;99.90
11650;DHT22;5881;48.522;7.682;2022-09-11T03:07:56;15.40;99.90
11650;DHT22;5881;48.522;7.682;2022-09-11T03:10:25;15.40;99.90
11650;DHT22;5881;48.522;7.682;2022-09-11T03:12:52;15.40;99.90
11650;DHT22;5881;48.522;7.682;2022-09-11T03:15:19;15.40;99.90
11650;DHT22;5881;48.522;7.682;2022-09-11T03:17:45;15.40;99.90
11650;DHT22;5881;48.522;7.682;2022-09-11T03:20:11;15.40;99.90
11650;DHT22;5881;48.522;7.682;2022-09-11T03:22:36;15.30;99.90
11650;DHT22;5881;48.522;7.682;2022-09-11T03:25:04;15.30;99.90
11650;DHT22;5881;48.522;7.682;2022-09-11T03:27:30;15.30;99.90
11650;DHT22;5881;48.522;7.682;2022-09-11T03:29:56;15.30;99.90
11650;DHT22;5881;48.522;7.682;2022-09-11T03:32:22;15.30;99.90
11650;DHT22;5881;48.522;7.682;2022-09-11T03:34:47;15.30;99.90
11650;DHT22;5881;48.522;7.682;2022-09-11T03:37:13;15.30;99.90
11650;DHT22;5881;48.522;7.682;2022-09-11T03:39:40;15.30;99.90
11650;DHT22;5881;48.522;7.682;2022-09-11T03:42:08;15.20;99.90
11650;DHT22;5881;48.522;7.682;2022-09-11T03:44:36;15.20;99.90
11650;DHT22;5881;48.522;7.682;2022-09-11T03:47:02;15.20;99.90
11650;DHT22;5881;48.522;7.682;2022-09-11T03:49:27;15.10;99.90
11650;DHT22;5881;48.522;7.682;2022-09-11T03:51:53;15.10;99.90
11650;DHT22;5881;48.522;7.682;2022-09-11T03:54:18;15.20;99.90
11650;DHT22;5881;48.522;7.682;2022-09-11T03:56:45;15.20;99.90
11650;DHT22;5881;48.522;7.682;2022-09-11T03:59:11;15.20;99.90
11650;DHT22;5881;48.522;7.682;2022-09-11T04:01:37;15.20;99.90
11650;DHT22;5881;48.522;7.682;2022-09-11T04:04:03;15.20;99.90
11650;DHT22;5881;48.522;7.682;2022-09-11T04:06:29;15.30;99.90
11650;DHT22;5881;48.522;7.682;2022-09-11T04:08:56;15.30;99.90
11650;DHT22;5881;48.522;7.682;2022-09-11T04:11:22;15.30;99.90
11650;DHT22;5881;48.522;7.682;2022-09-11T04:13:48;15.30;99.90
11650;DHT22;5881;48.522;7.682;2022-09-11T04:16:15;15.30;99.90
11650;DHT22;5881;48.522;7.682;2022-09-11T04:18:42;15.30;99.90
11650;DHT22;5881;48.522;7.682;2022-09-11T04:21:11;15.30;99.90
11650;DHT22;5881;48.522;7.682;2022-09-11T04:23:38;15.30;99.90
11650;DHT22;5881;48.522;7.682;2022-09-11T04:26:16;15.30;99.90
11650;DHT22;5881;48.522;7.682;2022-09-11T04:28:43;15.30;99.90
11650;DHT22;5881;48.522;7.682;2022-09-11T04:31:09;15.20;99.90
11650;DHT22;5881;48.522;7.682;2022-09-11T04:33:35;15.30;99.90
11650;DHT22;5881;48.522;7.682;2022-09-11T04:36:09;15.30;99.90
11650;DHT22;5881;48.522;7.682;2022-09-11T04:38:35;15.40;99.90
11650;DHT22;5881;48.522;7.682;2022-09-11T04:41:03;15.40;99.90
11650;DHT22;5881;48.522;7.682;2022-09-11T04:43:30;15.40;99.90
11650;DHT22;5881;48.522;7.682;2022-09-11T04:46:23;15.40;99.90
11650;DHT22;5881;48.522;7.682;2022-09-11T04:48:54;15.30;99.90
11650;DHT22;5881;48.522;7.682;2022-09-11T04:51:31;15.30;99.90
11650;DHT22;5881;48.522;7.682;2022-09-11T04:53:58;15.20;99.90
11650;DHT22;5881;48.522;7.682;2022-09-11T04:56:26;15.20;99.90
11650;DHT22;5881;48.522;7.682;2022-09-11T04:58:55;15.20;99.90
11650;DHT22;5881;48.522;7.682;2022-09-11T05:01:23;15.20;99.90
11650;DHT22;5881;48.522;7.682;2022-09-11T05:03:49;15.20;99.90
11650;DHT22;5881;48.522;7.682;2022-09-11T05:06:14;15.30;99.90
11650;DHT22;5881;48.522;7.682;2022-09-11T05:08:44;15.30;99.90
11650;DHT22;5881;48.522;7.682;2022-09-11T05:11:12;15.30;99.90
11650;DHT22;5881;48.522;7.682;2022-09-11T05:13:39;15.30;99.90
11650;DHT22;5881;48.522;7.682;2022-09-11T05:16:08;15.30;99.90
11650;DHT22;5881;48.522;7.682;2022-09-11T05:18:34;15.30;99.90
11650;DHT22;5881;48.522;7.682;2022-09-11T05:21:05;15.40;99.90
11650;DHT22;5881;48.522;7.682;2022-09-11T05:23:31;15.40;99.90
11650;DHT22;5881;48.522;7.682;2022-09-11T05:26:00;15.30;99.90
11650;DHT22;5881;48.522;7.682;2022-09-11T05:28:27;15.30;99.90
11650;DHT22;5881;48.522;7.682;2022-09-11T05:30:54;15.30;99.90
11650;DHT22;5881;48.522;7.682;2022-09-11T05:33:21;15.30;99.90
11650;DHT22;5881;48.522;7.682;2022-09-11T05:35:50;15.30;99.90
11650;DHT22;5881;48.522;7.682;2022-09-11T05:38:17;15.30;99.90
11650;DHT22;5881;48.522;7.682;2022-09-11T05:40:44;15.40;99.90
11650;DHT22;5881;48.522;7.682;2022-09-11T05:43:10;15.50;99.90
11650;DHT22;5881;48.522;7.682;2022-09-11T05:45:36;15.50;99.90
11650;DHT22;5881;48.522;7.682;2022-09-11T05:48:02;15.60;99.90
11650;DHT22;5881;48.522;7.682;2022-09-11T05:50:28;15.60;99.90
11650;DHT22;5881;48.522;7.682;2022-09-11T05:52:56;15.70;99.90
11650;DHT22;5881;48.522;7.682;2022-09-11T05:55:21;15.70;99.90
11650;DHT22;5881;48.522;7.682;2022-09-11T05:57:47;15.80;99.90
11650;DHT22;5881;48.522;7.682;2022-09-11T06:00:13;15.80;99.90
11650;DHT22;5881;48.522;7.682;2022-09-11T06:02:39;15.90;99.90
11650;DHT22;5881;48.522;7.682;2022-09-11T06:05:04;15.90;99.90
11650;DHT22;5881;48.522;7.682;2022-09-11T06:07:30;16.10;99.90
11650;DHT22;5881;48.522;7.682;2022-09-11T06:09:55;16.20;99.90
11650;DHT22;5881;48.522;7.682;2022-09-11T06:12:22;16.40;99.90
11650;DHT22;5881;48.522;7.682;2022-09-11T06:14:47;16.60;99.90
11650;DHT22;5881;48.522;7.682;2022-09-11T06:17:13;16.70;99.90
11650;DHT22;5881;48.522;7.682;2022-09-11T06:19:39;16.80;99.90
11650;DHT22;5881;48.522;7.682;2022-09-11T06:22:04;16.90;99.90
11650;DHT22;5881;48.522;7.682;2022-09-11T06:24:30;16.90;99.90
11650;DHT22;5881;48.522;7.682;2022-09-11T06:26:55;16.90;99.90
11650;DHT22;5881;48.522;7.682;2022-09-11T06:29:21;17.10;99.90
11650;DHT22;5881;48.522;7.682;2022-09-11T06:31:48;17.00;99.90
11650;DHT22;5881;48.522;7.682;2022-09-11T06:34:16;17.00;99.90
11650;DHT22;5881;48.522;7.682;2022-09-11T06:36:44;17.10;99.90
11650;DHT22;5881;48.522;7.682;2022-09-11T06:39:09;17.10;99.90
11650;DHT22;5881;48.522;7.682;2022-09-11T06:41:35;17.10;99.90
11650;DHT22;5881;48.522;7.682;2022-09-11T06:44:01;17.10;99.90
11650;DHT22;5881;48.522;7.682;2022-09-11T06:46:27;17.10;99.90
11650;DHT22;5881;48.522;7.682;2022-09-11T06:48:54;17.30;99.90
11650;DHT22;5881;48.522;7.682;2022-09-11T06:51:21;17.20;99.90
11650;DHT22;5881;48.522;7.682;2022-09-11T06:53:48;17.20;99.90
11650;DHT22;5881;48.522;7.682;2022-09-11T06:56:17;17.30;99.90
11650;DHT22;5881;48.522;7.682;2022-09-11T06:58:44;17.40;99.90
11650;DHT22;5881;48.522;7.682;2022-09-11T07:01:16;17.50;99.90
11650;DHT22;5881;48.522;7.682;2022-09-11T07:03:43;17.60;99.90
11650;DHT22;5881;48.522;7.682;2022-09-11T07:06:10;17.70;99.90
11650;DHT22;5881;48.522;7.682;2022-09-11T07:08:36;17.60;99.90
11650;DHT22;5881;48.522;7.682;2022-09-11T07:11:04;17.50;99.90
11650;DHT22;5881;48.522;7.682;2022-09-11T07:13:30;17.70;99.90
11650;DHT22;5881;48.522;7.682;2022-09-11T07:16:01;18.10;99.90
11650;DHT22;5881;48.522;7.682;2022-09-11T07:18:32;18.70;99.90
11650;DHT22;5881;48.522;7.682;2022-09-11T07:20:58;18.50;99.90
11650;DHT22;5881;48.522;7.682;2022-09-11T07:23:24;18.20;99.90
11650;DHT22;5881;48.522;7.682;2022-09-11T07:25:50;18.20;99.90
11650;DHT22;5881;48.522;7.682;2022-09-11T07:28:15;18.00;99.90
11650;DHT22;5881;48.522;7.682;2022-09-11T07:30:41;18.10;99.90
11650;DHT22;5881;48.522;7.682;2022-09-11T07:33:06;18.20;99.90
11650;DHT22;5881;48.522;7.682;2022-09-11T07:35:35;18.30;99.90
11650;DHT22;5881;48.522;7.682;2022-09-11T07:38:01;18.50;99.90
11650;DHT22;5881;48.522;7.682;2022-09-11T07:40:27;18.60;99.90
11650;DHT22;5881;48.522;7.682;2022-09-11T07:42:52;18.50;99.90
11650;DHT22;5881;48.522;7.682;2022-09-11T07:45:18;18.60;99.90
11650;DHT22;5881;48.522;7.682;2022-09-11T07:47:44;18.90;99.90
11650;DHT22;5881;48.522;7.682;2022-09-11T07:50:09;19.10;99.90
11650;DHT22;5881;48.522;7.682;2022-09-11T07:52:35;19.40;99.90
11650;DHT22;5881;48.522;7.682;2022-09-11T07:55:01;19.40;99.90
11650;DHT22;5881;48.522;7.682;2022-09-11T07:57:30;19.10;99.90
11650;DHT22;5881;48.522;7.682;2022-09-11T07:59:56;18.80;99.90
11650;DHT22;5881;48.522;7.682;2022-09-11T08:02:22;18.30;99.90
11650;DHT22;5881;48.522;7.682;2022-09-11T08:04:48;18.40;99.90
11650;DHT22;5881;48.522;7.682;2022-09-11T08:07:14;18.40;99.90
11650;DHT22;5881;48.522;7.682;2022-09-11T08:09:41;18.50;99.90
11650;DHT22;5881;48.522;7.682;2022-09-11T08:12:06;18.40;99.90
11650;DHT22;5881;48.522;7.682;2022-09-11T08:14:34;18.50;99.90
11650;DHT22;5881;48.522;7.682;2022-09-11T08:17:01;18.90;99.90
11650;DHT22;5881;48.522;7.682;2022-09-11T08:19:26;19.30;99.90
11650;DHT22;5881;48.522;7.682;2022-09-11T08:21:52;19.80;99.90
11650;DHT22;5881;48.522;7.682;2022-09-11T08:24:18;19.60;99.90
11650;DHT22;5881;48.522;7.682;2022-09-11T08:26:45;19.40;99.90
11650;DHT22;5881;48.522;7.682;2022-09-11T08:29:11;19.00;99.90
11650;DHT22;5881;48.522;7.682;2022-09-11T08:31:37;19.00;99.90
11650;DHT22;5881;48.522;7.682;2022-09-11T08:34:03;18.70;99.90
11650;DHT22;5881;48.522;7.682;2022-09-11T08:36:28;18.70;99.90
11650;DHT22;5881;48.522;7.682;2022-09-11T08:38:54;18.80;99.90
11650;DHT22;5881;48.522;7.682;2022-09-11T08:46:42;19.10;99.90
11650;DHT22;5881;48.522;7.682;2022-09-11T08:49:35;19.20;99.90
11650;DHT22;5881;48.522;7.682;2022-09-11T08:52:03;19.20;99.90
11650;DHT22;5881;48.522;7.682;2022-09-11T08:54:35;19.30;99.90
11650;DHT22;5881;48.522;7.682;2022-09-11T09:00:19;19.70;99.90
11650;DHT22;5881;48.522;7.682;2022-09-11T09:05:44;20.20;99.90
11650;DHT22;5881;48.522;7.682;2022-09-11T09:08:19;20.30;99.90
11650;DHT22;5881;48.522;7.682;2022-09-11T09:16:41;20.20;99.90
11650;DHT22;5881;48.522;7.682;2022-09-11T09:19:32;20.50;99.90
11650;DHT22;5881;48.522;7.682;2022-09-11T09:24:49;20.40;99.90
11650;DHT22;5881;48.522;7.682;2022-09-11T09:27:22;20.50;99.90
11650;DHT22;5881;48.522;7.682;2022-09-11T09:29:52;20.70;99.90
11650;DHT22;5881;48.522;7.682;2022-09-11T09:32:29;20.60;99.90
11650;DHT22;5881;48.522;7.682;2022-09-11T09:35:00;20.60;99.90
11650;DHT22;5881;48.522;7.682;2022-09-11T09:37:27;21.00;99.90
11650;DHT22;5881;48.522;7.682;2022-09-11T09:39:53;21.00;99.90
11650;DHT22;5881;48.522;7.682;2022-09-11T09:47:51;20.80;99.90
11650;DHT22;5881;48.522;7.682;2022-09-11T09:50:20;20.50;99.90
11650;DHT22;5881;48.522;7.682;2022-09-11T09:52:49;20.70;99.90
11650;DHT22;5881;48.522;7.682;2022-09-11T09:55:18;20.80;99.90
11650;DHT22;5881;48.522;7.682;2022-09-11T09:57:44;21.10;99.90
11650;DHT22;5881;48.522;7.682;2022-09-11T10:02:46;22.40;24.80
11650;DHT22;5881;48.522;7.682;2022-09-11T10:05:28;22.40;2.90
11650;DHT22;5881;48.522;7.682;2022-09-11T10:08:22;21.90;1.00
11650;DHT22;5881;48.522;7.682;2022-09-11T10:10:55;22.00;1.00
11650;DHT22;5881;48.522;7.682;2022-09-11T10:13:27;21.70;1.00
11650;DHT22;5881;48.522;7.682;2022-09-11T10:15:55;21.20;1.00
11650;DHT22;5881;48.522;7.682;2022-09-11T10:18:39;20.80;1.00
11650;DHT22;5881;48.522;7.682;2022-09-11T10:21:13;20.40;1.00
11650;DHT22;5881;48.522;7.682;2022-09-11T10:31:39;23.60;1.00
11650;DHT22;5881;48.522;7.682;2022-09-11T10:34:05;23.60;1.00
11650;DHT22;5881;48.522;7.682;2022-09-11T10:36:39;22.40;1.00
11650;DHT22;5881;48.522;7.682;2022-09-11T10:39:12;21.70;1.00
11650;DHT22;5881;48.522;7.682;2022-09-11T10:41:47;21.80;1.00
11650;DHT22;5881;48.522;7.682;2022-09-11T10:44:15;21.50;1.00
11650;DHT22;5881;48.522;7.682;2022-09-11T10:46:42;22.10;1.00
11650;DHT22;5881;48.522;7.682;2022-09-11T10:49:14;25.00;1.00
11650;DHT22;5881;48.522;7.682;2022-09-11T10:51:41;26.60;1.00
11650;DHT22;5881;48.522;7.682;2022-09-11T10:57:02;27.00;1.00
11650;DHT22;5881;48.522;7.682;2022-09-11T11:02:44;24.20;1.00
11650;DHT22;5881;48.522;7.682;2022-09-11T11:24:09;26.70;1.00
11650;DHT22;5881;48.522;7.682;2022-09-11T11:30:02;27.60;1.00
11650;DHT22;5881;48.522;7.682;2022-09-11T11:33:27;26.30;1.00
11650;DHT22;5881;48.522;7.682;2022-09-11T11:36:01;25.00;1.00
11650;DHT22;5881;48.522;7.682;2022-09-11T11:38:30;24.50;1.00
11650;DHT22;5881;48.522;7.682;2022-09-11T11:41:13;23.90;1.00
11650;DHT22;5881;48.522;7.682;2022-09-11T11:43:41;23.40;1.00
11650;DHT22;5881;48.522;7.682;2022-09-11T11:48:54;22.80;1.00
11650;DHT22;5881;48.522;7.682;2022-09-11T11:51:27;22.70;1.00
11650;DHT22;5881;48.522;7.682;2022-09-11T11:54:16;24.30;1.00
11650;DHT22;5881;48.522;7.682;2022-09-11T11:57:13;23.90;1.00
11650;DHT22;5881;48.522;7.682;2022-09-11T12:05:20;25.00;1.00
11650;DHT22;5881;48.522;7.682;2022-09-11T12:07:50;23.80;1.00
11650;DHT22;5881;48.522;7.682;2022-09-11T12:10:30;22.90;1.00
11650;DHT22;5881;48.522;7.682;2022-09-11T12:13:00;22.80;1.00
11650;DHT22;5881;48.522;7.682;2022-09-11T12:15:29;23.70;1.00
11650;DHT22;5881;48.522;7.682;2022-09-11T12:20:43;24.40;1.00
11650;DHT22;5881;48.522;7.682;2022-09-11T12:28:43;24.00;1.00
11650;DHT22;5881;48.522;7.682;2022-09-11T12:31:14;23.90;1.00
11650;DHT22;5881;48.522;7.682;2022-09-11T12:38:49;22.80;1.00
11650;DHT22;5881;48.522;7.682;2022-09-11T12:41:35;23.40;1.00
11650;DHT22;5881;48.522;7.682;2022-09-11T12:44:04;23.80;1.00
11650;DHT22;5881;48.522;7.682;2022-09-11T12:49:07;23.70;1.00
11650;DHT22;5881;48.522;7.682;2022-09-11T12:51:39;23.80;1.00
11650;DHT22;5881;48.522;7.682;2022-09-11T12:54:32;23.70;1.00
11650;DHT22;5881;48.522;7.682;2022-09-11T12:57:09;23.60;1.00
11650;DHT22;5881;48.522;7.682;2022-09-11T12:59:42;23.70;1.00
11650;DHT22;5881;48.522;7.682;2022-09-11T13:04:58;23.60;1.00
11650;DHT22;5881;48.522;7.682;2022-09-11T13:07:42;23.30;1.00
11650;DHT22;5881;48.522;7.682;2022-09-11T13:10:33;23.40;1.00
11650;DHT22;5881;48.522;7.682;2022-09-11T13:13:01;23.30;1.00
11650;DHT22;5881;48.522;7.682;2022-09-11T13:15:35;23.60;1.00
11650;DHT22;5881;48.522;7.682;2022-09-11T13:20:57;23.30;1.00
11650;DHT22;5881;48.522;7.682;2022-09-11T13:23:23;23.30;1.00
11650;DHT22;5881;48.522;7.682;2022-09-11T13:25:49;23.40;1.00
11650;DHT22;5881;48.522;7.682;2022-09-11T13:28:15;23.60;1.00
11650;DHT22;5881;48.522;7.682;2022-09-11T13:30:59;23.70;1.00
11650;DHT22;5881;48.522;7.682;2022-09-11T13:33:28;23.50;1.00
11650;DHT22;5881;48.522;7.682;2022-09-11T13:35:59;23.50;1.00
11650;DHT22;5881;48.522;7.682;2022-09-11T13:38:35;23.60;1.00
11650;DHT22;5881;48.522;7.682;2022-09-11T13:41:23;23.00;1.00
11650;DHT22;5881;48.522;7.682;2022-09-11T13:43:53;23.00;1.00
11650;DHT22;5881;48.522;7.682;2022-09-11T13:46:21;23.10;1.00
11650;DHT22;5881;48.522;7.682;2022-09-11T13:48:50;23.00;1.00
11650;DHT22;5881;48.522;7.682;2022-09-11T13:51:20;23.00;1.00
11650;DHT22;5881;48.522;7.682;2022-09-11T13:53:54;22.90;1.00
11650;DHT22;5881;48.522;7.682;2022-09-11T13:56:45;22.80;1.00
11650;DHT22;5881;48.522;7.682;2022-09-11T14:07:32;23.10;1.00
11650;DHT22;5881;48.522;7.682;2022-09-11T14:10:03;22.90;1.00
11650;DHT22;5881;48.522;7.682;2022-09-11T14:12:30;23.00;1.00
11650;DHT22;5881;48.522;7.682;2022-09-11T14:15:00;23.20;1.00
11650;DHT22;5881;48.522;7.682;2022-09-11T14:17:28;23.20;1.00
11650;DHT22;5881;48.522;7.682;2022-09-11T14:19:58;23.30;1.00
11650;DHT22;5881;48.522;7.682;2022-09-11T14:22:29;23.20;1.00
11650;DHT22;5881;48.522;7.682;2022-09-11T14:25:03;22.90;1.00
11650;DHT22;5881;48.522;7.682;2022-09-11T14:29:55;23.00;1.00
11650;DHT22;5881;48.522;7.682;2022-09-11T14:32:35;23.00;1.00
11650;DHT22;5881;48.522;7.682;2022-09-11T14:35:02;22.90;1.00
11650;DHT22;5881;48.522;7.682;2022-09-11T14:37:31;22.80;1.00
11650;DHT22;5881;48.522;7.682;2022-09-11T14:40:04;22.70;1.00
11650;DHT22;5881;48.522;7.682;2022-09-11T14:42:32;22.70;1.00
11650;DHT22;5881;48.522;7.682;2022-09-11T14:45:06;22.80;1.00
11650;DHT22;5881;48.522;7.682;2022-09-11T14:47:32;22.70;1.00
11650;DHT22;5881;48.522;7.682;2022-09-11T14:49:58;22.40;1.00
11650;DHT22;5881;48.522;7.682;2022-09-11T14:52:28;22.40;1.00
11650;DHT22;5881;48.522;7.682;2022-09-11T14:54:54;22.30;1.00
11650;DHT22;5881;48.522;7.682;2022-09-11T14:57:28;22.40;1.00
11650;DHT22;5881;48.522;7.682;2022-09-11T14:59:54;22.50;1.00
11650;DHT22;5881;48.522;7.682;2022-09-11T15:02:22;22.70;1.00
11650;DHT22;5881;48.522;7.682;2022-09-11T15:04:49;22.90;1.00
11650;DHT22;5881;48.522;7.682;2022-09-11T15:07:16;22.80;1.00
11650;DHT22;5881;48.522;7.682;2022-09-11T15:09:43;22.90;1.00
11650;DHT22;5881;48.522;7.682;2022-09-11T15:12:11;22.80;1.00
11650;DHT22;5881;48.522;7.682;2022-09-11T15:14:38;22.70;1.00
11650;DHT22;5881;48.522;7.682;2022-09-11T15:17:12;22.60;1.00
11650;DHT22;5881;48.522;7.682;2022-09-11T15:19:39;22.60;1.00
11650;DHT22;5881;48.522;7.682;2022-09-11T15:22:06;22.50;1.00
11650;DHT22;5881;48.522;7.682;2022-09-11T15:24:32;22.50;1.00
11650;DHT22;5881;48.522;7.682;2022-09-11T15:26:58;22.50;1.00
11650;DHT22;5881;48.522;7.682;2022-09-11T15:29:24;22.50;1.00
11650;DHT22;5881;48.522;7.682;2022-09-11T15:31:51;22.40;1.00
11650;DHT22;5881;48.522;7.682;2022-09-11T15:34:20;22.40;1.00
11650;DHT22;5881;48.522;7.682;2022-09-11T15:36:47;22.30;1.00
11650;DHT22;5881;48.522;7.682;2022-09-11T15:39:17;22.20;1.00
11650;DHT22;5881;48.522;7.682;2022-09-11T15:41:44;22.10;1.00
11650;DHT22;5881;48.522;7.682;2022-09-11T15:44:12;22.20;1.00
11650;DHT22;5881;48.522;7.682;2022-09-11T15:46:40;22.10;1.00
11650;DHT22;5881;48.522;7.682;2022-09-11T15:49:05;22.00;1.00
11650;DHT22;5881;48.522;7.682;2022-09-11T15:51:31;22.10;1.00
11650;DHT22;5881;48.522;7.682;2022-09-11T15:54:00;22.10;1.00
11650;DHT22;5881;48.522;7.682;2022-09-11T15:56:27;22.10;1.00
11650;DHT22;5881;48.522;7.682;2022-09-11T15:58:56;22.00;1.00
11650;DHT22;5881;48.522;7.682;2022-09-11T16:01:27;22.00;1.00
11650;DHT22;5881;48.522;7.682;2022-09-11T16:03:58;21.90;1.00
11650;DHT22;5881;48.522;7.682;2022-09-11T16:06:26;21.80;1.00
11650;DHT22;5881;48.522;7.682;2022-09-11T16:08:57;21.80;1.00
11650;DHT22;5881;48.522;7.682;2022-09-11T16:11:24;21.80;1.00
11650;DHT22;5881;48.522;7.682;2022-09-11T16:13:51;21.70;1.00
11650;DHT22;5881;48.522;7.682;2022-09-11T16:16:18;21.60;1.00
11650;DHT22;5881;48.522;7.682;2022-09-11T16:18:44;21.60;1.00
11650;DHT22;5881;48.522;7.682;2022-09-11T16:21:11;21.40;1.00
11650;DHT22;5881;48.522;7.682;2022-09-11T16:23:38;21.50;1.00
11650;DHT22;5881;48.522;7.682;2022-09-11T16:26:07;21.40;1.00
11650;DHT22;5881;48.522;7.682;2022-09-11T16:28:35;21.30;1.00
11650;DHT22;5881;48.522;7.682;2022-09-11T16:31:02;21.40;1.00
11650;DHT22;5881;48.522;7.682;2022-09-11T16:33:28;21.40;1.00
11650;DHT22;5881;48.522;7.682;2022-09-11T16:36:03;21.30;1.00
11650;DHT22;5881;48.522;7.682;2022-09-11T16:38:31;21.30;1.00
11650;DHT22;5881;48.522;7.682;2022-09-11T16:41:06;21.20;1.00
11650;DHT22;5881;48.522;7.682;2022-09-11T16:43:34;21.10;1.00
11650;DHT22;5881;48.522;7.682;2022-09-11T16:46:00;21.00;1.00
11650;DHT22;5881;48.522;7.682;2022-09-11T16:48:28;20.90;1.00
11650;DHT22;5881;48.522;7.682;2022-09-11T16:50:54;20.90;1.00
11650;DHT22;5881;48.522;7.682;2022-09-11T16:53:21;20.90;1.00
11650;DHT22;5881;48.522;7.682;2022-09-11T16:55:47;20.80;1.00
11650;DHT22;5881;48.522;7.682;2022-09-11T16:58:13;20.80;1.00
11650;DHT22;5881;48.522;7.682;2022-09-11T17:00:40;20.70;1.00
11650;DHT22;5881;48.522;7.682;2022-09-11T17:03:06;20.60;1.00
11650;DHT22;5881;48.522;7.682;2022-09-11T17:05:32;20.60;1.00
11650;DHT22;5881;48.522;7.682;2022-09-11T17:07:57;20.60;1.00
11650;DHT22;5881;48.522;7.682;2022-09-11T17:10:23;20.60;1.00
11650;DHT22;5881;48.522;7.682;2022-09-11T17:12:49;20.50;1.00
11650;DHT22;5881;48.522;7.682;2022-09-11T17:15:15;20.30;1.00
11650;DHT22;5881;48.522;7.682;2022-09-11T17:17:40;20.30;1.00
11650;DHT22;5881;48.522;7.682;2022-09-11T17:20:08;20.30;1.00
11650;DHT22;5881;48.522;7.682;2022-09-11T17:22:36;20.40;1.00
11650;DHT22;5881;48.522;7.682;2022-09-11T17:25:02;20.30;1.00
11650;DHT22;5881;48.522;7.682;2022-09-11T17:27:28;20.30;1.00
11650;DHT22;5881;48.522;7.682;2022-09-11T17:29:54;20.20;1.00
11650;DHT22;5881;48.522;7.682;2022-09-11T17:32:19;20.10;1.00
11650;DHT22;5881;48.522;7.682;2022-09-11T17:34:47;20.00;1.00
11650;DHT22;5881;48.522;7.682;2022-09-11T17:37:13;19.90;1.00
11650;DHT22;5881;48.522;7.682;2022-09-11T17:39:38;19.90;1.00
11650;DHT22;5881;48.522;7.682;2022-09-11T17:42:05;19.80;1.00
11650;DHT22;5881;48.522;7.682;2022-09-11T17:44:31;19.70;1.00
11650;DHT22;5881;48.522;7.682;2022-09-11T17:46:58;19.70;1.00
11650;DHT22;5881;48.522;7.682;2022-09-11T17:49:27;19.70;1.00
11650;DHT22;5881;48.522;7.682;2022-09-11T17:51:53;19.60;1.00
11650;DHT22;5881;48.522;7.682;2022-09-11T17:54:19;19.50;1.00
11650;DHT22;5881;48.522;7.682;2022-09-11T17:56:44;19.50;1.00
11650;DHT22;5881;48.522;7.682;2022-09-11T17:59:10;19.40;1.00
11650;DHT22;5881;48.522;7.682;2022-09-11T18:01:36;19.30;1.00
11650;DHT22;5881;48.522;7.682;2022-09-11T18:04:02;19.30;1.00
11650;DHT22;5881;48.522;7.682;2022-09-11T18:06:30;19.20;1.00
11650;DHT22;5881;48.522;7.682;2022-09-11T18:08:59;19.10;1.00
11650;DHT22;5881;48.522;7.682;2022-09-11T18:11:26;19.00;1.00
11650;DHT22;5881;48.522;7.682;2022-09-11T18:13:53;18.90;1.00
11650;DHT22;5881;48.522;7.682;2022-09-11T18:16:22;18.80;1.00
11650;DHT22;5881;48.522;7.682;2022-09-11T18:18:48;18.50;1.00
11650;DHT22;5881;48.522;7.682;2022-09-11T18:21:14;18.40;1.00
11650;DHT22;5881;48.522;7.682;2022-09-11T18:23:44;18.30;1.00
11650;DHT22;5881;48.522;7.682;2022-09-11T18:26:36;18.20;1.00